createdAt,value
2018-07-17T00:02:04.766Z,13.00
2018-07-17T00:04:38.639Z,12.90
2018-07-17T00:07:13.385Z,12.90
2018-07-17T00:12:19.816Z,12.90
2018-07-17T00:14:53.914Z,12.70
2018-07-17T00:17:27.476Z,12.60
2018-07-17T00:19:55.831Z,12.60
2018-07-17T00:22:27.253Z,12.60
2018-07-17T00:24:58.483Z,12.60
2018-07-17T00:30:00.894Z,12.90
2018-07-17T00:32:32.522Z,12.90
2018-07-17T00:37:35.737Z,13.00
2018-07-17T00:45:10.339Z,12.90
2018-07-17T00:47:44.197Z,12.90
2018-07-17T00:50:17.822Z,12.90
2018-07-17T00:52:51.633Z,13.00
2018-07-17T00:55:25.376Z,13.00
2018-07-17T00:58:00.119Z,13.10
2018-07-17T01:00:37.352Z,13.00
2018-07-17T01:03:14.938Z,12.90
2018-07-17T01:05:52.886Z,12.90
2018-07-17T01:08:30.294Z,12.80
2018-07-17T01:11:07.183Z,12.70
2018-07-17T01:14:00.227Z,12.70
2018-07-17T01:16:33.017Z,12.70
2018-07-17T01:19:06.210Z,12.70
2018-07-17T01:21:37.447Z,12.70
2018-07-17T01:24:08.771Z,12.60
2018-07-17T01:26:39.735Z,12.60
2018-07-17T01:29:10.652Z,12.60
2018-07-17T01:31:41.801Z,12.70
2018-07-17T01:34:12.990Z,12.60
2018-07-17T01:36:45.324Z,12.60
2018-07-17T01:39:16.768Z,12.60
2018-07-17T01:41:48.178Z,12.50
2018-07-17T01:44:19.456Z,12.40
2018-07-17T01:46:50.869Z,12.30
2018-07-17T01:49:22.858Z,12.20
2018-07-17T01:54:25.872Z,12.20
2018-07-17T02:01:57.773Z,12.10
2018-07-17T02:06:57.794Z,12.10
2018-07-17T02:09:28.968Z,12.10
2018-07-17T02:12:00.406Z,12.10
2018-07-17T02:17:02.046Z,12.10
2018-07-17T02:19:33.539Z,12.00
2018-07-17T02:22:05.051Z,12.00
2018-07-17T02:24:37.017Z,12.00
2018-07-17T02:27:07.957Z,11.90
2018-07-17T02:29:38.754Z,11.90
2018-07-17T02:32:10.057Z,11.90
2018-07-17T02:34:41.171Z,11.90
2018-07-17T02:37:12.608Z,11.90
2018-07-17T02:39:40.802Z,11.90
2018-07-17T02:42:12.373Z,11.90
2018-07-17T02:44:43.599Z,11.90
2018-07-17T02:47:14.526Z,11.80
2018-07-17T02:49:45.923Z,11.90
2018-07-17T02:52:15.837Z,11.90
2018-07-17T02:54:46.481Z,11.90
2018-07-17T02:59:48.816Z,12.00
2018-07-17T03:04:49.862Z,12.10
2018-07-17T03:09:51.151Z,12.10
2018-07-17T03:14:50.277Z,12.10
2018-07-17T03:17:18.429Z,12.10
2018-07-17T03:19:46.581Z,12.00
2018-07-17T03:22:14.841Z,12.00
2018-07-17T03:24:42.861Z,11.90
2018-07-17T03:27:11.193Z,11.90
2018-07-17T03:32:07.265Z,12.00
2018-07-17T03:34:35.352Z,12.10
2018-07-17T03:37:03.444Z,12.30
2018-07-17T03:39:31.495Z,12.40
2018-07-17T03:41:59.610Z,12.40
2018-07-17T03:44:27.904Z,12.40
2018-07-17T03:49:23.772Z,12.50
2018-07-17T03:51:52.064Z,12.60
2018-07-17T03:54:20.111Z,12.60
2018-07-17T03:59:15.954Z,12.60
2018-07-17T04:01:44.289Z,12.70
2018-07-17T04:04:12.309Z,12.80
2018-07-17T04:06:40.538Z,13.10
2018-07-17T04:09:08.585Z,13.30
2018-07-17T04:11:36.925Z,13.80
2018-07-17T04:16:33.077Z,14.60
2018-07-17T04:21:29.785Z,15.10
2018-07-17T04:23:58.039Z,15.50
2018-07-17T04:26:33.451Z,15.80
2018-07-17T04:29:01.762Z,15.90
2018-07-17T04:31:30.048Z,16.20
2018-07-17T04:33:58.128Z,16.80
2018-07-17T04:36:26.538Z,17.30
2018-07-17T04:38:55.689Z,17.50
2018-07-17T04:41:23.954Z,17.70
2018-07-17T04:43:52.056Z,17.00
2018-07-17T04:46:20.105Z,16.80
2018-07-17T04:48:48.291Z,16.20
2018-07-17T04:51:16.344Z,15.90
2018-07-17T04:53:44.607Z,15.90
2018-07-17T04:56:14.001Z,16.10
2018-07-17T04:58:42.125Z,16.00
2018-07-17T05:03:38.274Z,16.80
2018-07-17T05:06:06.456Z,17.00
2018-07-17T05:08:34.495Z,17.30
2018-07-17T05:11:02.796Z,17.40
2018-07-17T05:13:31.045Z,16.90
2018-07-17T05:18:27.038Z,16.80
2018-07-17T05:20:56.144Z,17.10
2018-07-17T05:23:24.506Z,17.20
2018-07-17T05:25:52.551Z,16.90
2018-07-17T05:28:20.773Z,18.00
2018-07-17T05:30:49.021Z,19.10
2018-07-17T05:33:17.605Z,20.20
2018-07-17T05:35:47.118Z,20.90
2018-07-17T05:38:15.410Z,20.80
2018-07-17T05:40:43.879Z,21.10
2018-07-17T05:43:12.052Z,21.20
2018-07-17T05:45:40.429Z,21.90
2018-07-17T05:48:08.512Z,22.30
2018-07-17T05:50:36.640Z,21.90
2018-07-17T05:55:33.687Z,19.20
2018-07-17T05:58:02.045Z,20.00
2018-07-17T06:00:30.386Z,21.10
2018-07-17T06:02:58.478Z,21.60
2018-07-17T06:05:26.613Z,22.40
2018-07-17T06:10:22.788Z,22.70
2018-07-17T06:12:53.538Z,21.40
2018-07-17T06:17:51.693Z,19.20
2018-07-17T06:22:47.748Z,18.70
2018-07-17T06:25:17.556Z,18.90
2018-07-17T06:27:46.422Z,19.00
2018-07-17T06:30:15.492Z,19.00
2018-07-17T06:32:44.336Z,19.00
2018-07-17T06:35:14.201Z,19.10
2018-07-17T06:37:44.204Z,19.20
2018-07-17T06:42:44.468Z,19.60
2018-07-17T06:45:15.123Z,19.70
2018-07-17T06:50:18.867Z,20.00
2018-07-17T06:52:49.361Z,20.00
2018-07-17T06:55:20.049Z,20.20
2018-07-17T06:57:51.892Z,20.30
2018-07-17T07:00:30.476Z,20.30
2018-07-17T07:03:04.237Z,20.40
2018-07-17T07:05:36.965Z,20.50
2018-07-17T07:10:43.490Z,20.80
2018-07-17T07:15:57.782Z,21.00
2018-07-17T07:18:32.432Z,21.30
2018-07-17T07:23:37.941Z,21.60
2018-07-17T07:28:50.194Z,21.50
2018-07-17T07:31:21.450Z,21.50
2018-07-17T07:33:58.865Z,21.60
2018-07-17T07:39:10.210Z,21.70
2018-07-17T07:41:40.073Z,22.00
2018-07-17T07:44:09.011Z,22.20
2018-07-17T07:46:38.108Z,22.50
2018-07-17T07:49:09.671Z,22.50
2018-07-17T07:54:08.319Z,22.60
2018-07-17T07:59:10.816Z,22.90
2018-07-17T08:01:45.324Z,22.90
2018-07-17T08:04:14.042Z,23.00
2018-07-17T08:06:49.296Z,23.20
2018-07-17T08:09:18.216Z,23.30
2018-07-17T08:14:19.749Z,23.30
2018-07-17T08:16:48.475Z,23.50
2018-07-17T08:21:51.346Z,23.60
2018-07-17T08:24:21.977Z,23.60
2018-07-17T08:31:48.143Z,23.60
2018-07-17T08:34:16.301Z,23.90
2018-07-17T08:36:45.640Z,23.60
2018-07-17T08:39:13.772Z,23.90
2018-07-17T08:41:41.738Z,24.20
2018-07-17T08:44:10.015Z,24.40
2018-07-17T08:46:38.084Z,24.50
2018-07-17T08:49:06.159Z,24.70
2018-07-17T08:51:34.343Z,24.10
2018-07-17T08:54:02.487Z,24.20
2018-07-17T08:56:30.693Z,24.20
2018-07-17T08:58:58.899Z,24.30
2018-07-17T09:01:26.924Z,24.30
2018-07-17T09:03:55.108Z,24.40
2018-07-17T09:06:23.480Z,24.60
2018-07-17T09:08:52.483Z,24.60
2018-07-17T09:11:20.641Z,24.60
2018-07-17T09:13:48.835Z,24.30
2018-07-17T09:16:17.031Z,24.20
2018-07-17T09:18:45.101Z,24.40
2018-07-17T09:21:13.269Z,24.70
2018-07-17T09:23:41.433Z,24.80
2018-07-17T09:26:09.713Z,24.80
2018-07-17T09:28:37.905Z,24.90
2018-07-17T09:31:06.081Z,24.90
2018-07-17T09:33:34.205Z,25.20
2018-07-17T09:57:44.693Z,25.30
2018-07-17T10:01:16.518Z,24.90
2018-07-17T10:03:44.843Z,25.20
2018-07-17T10:06:12.970Z,25.60
2018-07-17T10:08:40.980Z,26.00
2018-07-17T10:11:09.088Z,25.60
2018-07-17T10:13:37.348Z,25.60
2018-07-17T10:16:05.482Z,25.60
2018-07-17T10:21:01.693Z,25.80
2018-07-17T10:23:29.824Z,26.00
2018-07-17T10:25:57.910Z,26.10
2018-07-17T10:28:26.052Z,26.00
2018-07-17T10:33:22.088Z,26.40
2018-07-17T10:35:50.309Z,26.60
2018-07-17T10:38:18.588Z,26.30
2018-07-17T10:40:46.743Z,26.20
2018-07-17T10:43:14.932Z,26.10
2018-07-17T10:45:43.111Z,26.30
2018-07-17T10:48:11.368Z,26.40
2018-07-17T10:50:39.472Z,26.20
2018-07-17T10:53:07.648Z,26.30
2018-07-17T10:55:35.725Z,26.50
2018-07-17T10:58:03.895Z,26.50
2018-07-17T11:00:31.961Z,26.60
2018-07-17T11:03:00.040Z,26.30
2018-07-17T11:05:28.282Z,26.00
2018-07-17T11:07:56.409Z,26.40
2018-07-17T11:10:24.467Z,26.20
2018-07-17T11:12:52.522Z,25.90
2018-07-17T11:15:20.600Z,26.10
2018-07-17T11:17:48.678Z,26.00
2018-07-17T11:21:31.534Z,26.50
2018-07-17T11:23:59.841Z,26.60
2018-07-17T11:26:27.910Z,26.70
2018-07-17T11:28:56.568Z,26.90
2018-07-17T11:31:24.867Z,26.80
2018-07-17T11:33:52.985Z,26.80
2018-07-17T11:36:21.089Z,26.90
2018-07-17T11:38:49.253Z,27.00
2018-07-17T11:41:17.484Z,27.20
2018-07-17T11:43:45.740Z,27.30
2018-07-17T11:46:13.977Z,27.30
2018-07-17T11:48:42.094Z,27.40
2018-07-17T11:51:10.417Z,27.30
2018-07-17T11:53:38.617Z,27.20
2018-07-17T11:56:06.864Z,27.20
2018-07-17T12:01:03.131Z,26.80
2018-07-17T12:03:31.357Z,26.80
2018-07-17T12:05:59.536Z,27.00
2018-07-17T12:08:27.564Z,27.00
2018-07-17T12:10:55.746Z,27.30
2018-07-17T12:13:24.042Z,27.30
2018-07-17T12:15:52.300Z,27.60
2018-07-17T12:18:20.444Z,27.60
2018-07-17T12:23:16.404Z,27.70
2018-07-17T12:25:44.853Z,27.50
2018-07-17T12:30:41.401Z,27.80
2018-07-17T12:33:09.535Z,28.00
2018-07-17T12:35:37.801Z,28.20
2018-07-17T12:38:05.989Z,28.00
2018-07-17T12:40:34.140Z,27.80
2018-07-17T12:43:02.269Z,27.80
2018-07-17T12:45:30.397Z,27.80
2018-07-17T12:47:58.997Z,27.80
2018-07-17T12:50:27.032Z,27.80
2018-07-17T12:52:58.100Z,27.90
2018-07-17T12:55:26.287Z,27.90
2018-07-17T12:57:54.335Z,28.00
2018-07-17T13:00:22.537Z,28.10
2018-07-17T13:02:50.772Z,28.20
2018-07-17T13:05:18.895Z,28.00
2018-07-17T13:07:46.939Z,28.00
2018-07-17T13:10:15.025Z,28.50
2018-07-17T13:12:43.211Z,29.00
2018-07-17T13:15:11.458Z,28.80
2018-07-17T13:17:39.639Z,28.70
2018-07-17T13:20:07.721Z,29.10
2018-07-17T13:22:36.028Z,29.00
2018-07-17T13:25:04.572Z,28.90
2018-07-17T13:30:00.521Z,29.10
2018-07-17T13:32:28.638Z,29.40
2018-07-17T13:34:56.679Z,28.70
2018-07-17T13:37:24.966Z,27.70
2018-07-17T13:39:53.016Z,27.20
2018-07-17T13:42:21.217Z,26.70
2018-07-17T13:44:49.359Z,26.10
2018-07-17T13:47:17.358Z,25.50
2018-07-17T13:49:45.508Z,25.00
2018-07-17T13:52:13.731Z,24.50
2018-07-17T13:54:41.770Z,21.60
2018-07-17T13:57:10.212Z,19.40
2018-07-17T14:02:06.563Z,18.20
2018-07-17T14:04:34.883Z,18.00
2018-07-17T14:07:03.136Z,17.80
2018-07-17T14:09:31.457Z,17.60
2018-07-17T14:11:59.528Z,17.40
2018-07-17T14:14:27.596Z,17.50
2018-07-17T14:16:55.752Z,17.60
2018-07-17T14:19:23.845Z,17.60
2018-07-17T14:21:51.901Z,17.80
2018-07-17T14:24:20.210Z,18.10
2018-07-17T14:26:48.397Z,18.30
2018-07-17T14:29:16.465Z,18.60
2018-07-17T14:31:44.613Z,18.80
2018-07-17T14:34:12.729Z,19.10
2018-07-17T14:36:40.976Z,19.30
2018-07-17T14:39:11.270Z,19.50
2018-07-17T14:41:39.526Z,19.70
2018-07-17T14:44:07.849Z,19.80
2018-07-17T14:46:36.021Z,20.00
2018-07-17T14:49:04.420Z,20.30
2018-07-17T14:51:32.909Z,20.60
2018-07-17T14:54:01.159Z,21.00
2018-07-17T14:56:29.560Z,21.10
2018-07-17T14:58:57.726Z,21.30
2018-07-17T15:01:25.876Z,21.60
2018-07-17T15:03:53.988Z,22.00
2018-07-17T15:06:22.129Z,22.50
2018-07-17T15:08:50.308Z,22.90
2018-07-17T15:11:18.550Z,22.90
2018-07-17T15:16:14.500Z,23.10
2018-07-17T15:21:10.382Z,22.40
2018-07-17T15:23:38.442Z,22.20
2018-07-17T15:26:06.516Z,22.20
2018-07-17T15:28:34.615Z,22.50
2018-07-17T15:31:02.882Z,22.70
2018-07-17T15:33:31.044Z,22.50
2018-07-17T15:35:59.094Z,22.90
2018-07-17T15:38:27.276Z,22.80
2018-07-17T15:40:55.453Z,22.90
2018-07-17T15:43:23.572Z,23.10
2018-07-17T15:45:51.716Z,23.10
2018-07-17T15:48:19.728Z,23.10
2018-07-17T15:53:15.903Z,23.40
2018-07-17T15:58:11.893Z,23.80
2018-07-17T16:00:40.046Z,23.80
2018-07-17T16:03:08.341Z,23.90
2018-07-17T16:05:36.636Z,24.10
2018-07-17T16:08:04.890Z,24.10
2018-07-17T16:10:33.484Z,24.20
2018-07-17T16:13:02.000Z,24.20
2018-07-17T16:15:30.262Z,24.10
2018-07-17T16:17:58.296Z,24.20
2018-07-17T16:20:26.476Z,24.30
2018-07-17T16:22:54.648Z,24.20
2018-07-17T16:25:23.333Z,24.40
2018-07-17T16:27:51.392Z,24.50
2018-07-17T16:30:19.467Z,24.60
2018-07-17T16:32:47.900Z,24.60
2018-07-17T16:35:16.133Z,24.60
2018-07-17T16:40:12.390Z,25.30
2018-07-17T16:42:40.702Z,26.80
2018-07-17T16:45:08.843Z,26.90
2018-07-17T16:47:36.937Z,27.00
2018-07-17T16:50:05.325Z,26.20
2018-07-17T16:52:33.644Z,27.30
2018-07-17T16:57:30.209Z,27.10
2018-07-17T17:02:26.202Z,27.40
2018-07-17T17:04:54.361Z,27.90
2018-07-17T17:07:22.520Z,25.30
2018-07-17T17:09:50.629Z,23.90
2018-07-17T17:12:18.729Z,23.10
2018-07-17T17:14:46.877Z,22.70
2018-07-17T17:17:15.036Z,22.90
2018-07-17T17:19:43.207Z,23.80
2018-07-17T17:22:11.468Z,24.90
2018-07-17T17:24:39.780Z,25.90
2018-07-17T17:27:07.916Z,26.40
2018-07-17T17:29:36.110Z,26.20
2018-07-17T17:32:04.297Z,26.80
2018-07-17T17:34:32.357Z,26.80
2018-07-17T17:37:00.648Z,27.10
2018-07-17T17:39:29.642Z,26.80
2018-07-17T17:41:57.736Z,26.30
2018-07-17T17:44:25.788Z,25.50
2018-07-17T17:46:53.888Z,25.40
2018-07-17T17:49:22.048Z,24.80
2018-07-17T17:51:50.207Z,24.10
2018-07-17T17:54:18.294Z,23.90
2018-07-17T17:56:46.458Z,24.00
2018-07-17T17:59:14.612Z,23.00
2018-07-17T18:01:42.841Z,22.50
2018-07-17T18:04:11.097Z,22.10
2018-07-17T18:06:39.714Z,22.80
2018-07-17T18:09:08.204Z,23.10
2018-07-17T18:11:36.873Z,23.00
2018-07-17T18:14:05.111Z,22.80
2018-07-17T18:16:33.186Z,22.60
2018-07-17T18:19:01.447Z,22.40
2018-07-17T18:21:29.625Z,22.30
2018-07-17T18:23:57.735Z,21.30
2018-07-17T18:26:25.893Z,20.80
2018-07-17T18:28:54.096Z,20.30
2018-07-17T18:31:22.438Z,19.80
2018-07-17T18:33:50.637Z,19.50
2018-07-17T18:36:18.862Z,19.30
2018-07-17T18:41:14.957Z,18.90
2018-07-17T18:43:43.091Z,18.70
2018-07-17T18:46:11.201Z,18.60
2018-07-17T18:48:43.798Z,18.40
2018-07-17T18:51:11.956Z,18.30
2018-07-17T18:53:40.063Z,18.20
2018-07-17T18:58:36.057Z,18.10
2018-07-17T19:01:04.436Z,18.00
2018-07-17T19:03:32.638Z,18.00
2018-07-17T19:06:00.928Z,17.90
2018-07-17T19:08:29.101Z,17.90
2018-07-17T19:10:57.236Z,17.80
2018-07-17T19:13:25.435Z,17.80
2018-07-17T19:15:53.598Z,17.70
2018-07-17T19:18:21.647Z,17.60
2018-07-17T19:20:49.984Z,17.50
2018-07-17T19:23:18.020Z,17.50
2018-07-17T19:25:46.217Z,17.40
2018-07-17T19:28:14.261Z,17.40
2018-07-17T19:30:50.472Z,17.30
2018-07-17T19:33:20.683Z,17.30
2018-07-17T19:35:49.138Z,17.20
2018-07-17T19:38:17.339Z,17.10
2018-07-17T19:40:45.844Z,17.10
2018-07-17T19:45:42.096Z,17.00
2018-07-17T19:48:10.307Z,16.90
2018-07-17T19:50:38.625Z,16.90
2018-07-17T19:53:06.911Z,16.80
2018-07-17T19:55:35.052Z,16.80
2018-07-17T19:58:03.238Z,16.80
2018-07-17T20:00:31.601Z,16.70
2018-07-17T20:03:09.429Z,16.70
2018-07-17T20:05:49.734Z,16.60
2018-07-17T20:08:26.107Z,16.60
2018-07-17T20:11:04.594Z,16.70
2018-07-17T20:13:41.189Z,16.70
2018-07-17T20:18:56.706Z,16.70
2018-07-17T20:21:34.870Z,16.60
2018-07-17T20:32:10.226Z,16.40
2018-07-17T20:40:18.017Z,16.40
2018-07-17T20:43:06.218Z,16.40
2018-07-17T20:45:49.494Z,16.40
2018-07-17T20:48:34.075Z,16.30
2018-07-17T20:53:31.681Z,16.30
2018-07-17T20:55:59.792Z,16.20
2018-07-17T20:58:27.862Z,16.10
2018-07-17T21:00:56.103Z,16.10
2018-07-17T21:03:24.427Z,16.10
2018-07-17T21:06:00.075Z,16.00
2018-07-17T21:11:11.212Z,15.90
2018-07-17T21:16:24.537Z,15.70
2018-07-17T21:21:45.957Z,15.80
2018-07-17T21:29:35.984Z,15.80
2018-07-17T21:34:48.641Z,15.90
2018-07-17T21:37:31.177Z,15.90
2018-07-17T21:40:10.379Z,16.00
2018-07-17T21:42:46.790Z,15.90
2018-07-17T21:45:15.301Z,15.90
2018-07-17T21:47:43.397Z,15.90
2018-07-17T21:50:11.440Z,15.90
2018-07-17T21:52:39.624Z,15.90
2018-07-17T21:55:07.805Z,16.00
2018-07-17T21:57:36.824Z,16.00
2018-07-17T22:00:07.445Z,16.00
2018-07-17T22:02:35.481Z,16.00
2018-07-17T22:05:03.803Z,16.10
2018-07-17T22:07:31.952Z,16.10
2018-07-17T22:10:01.044Z,16.20
2018-07-17T22:12:29.227Z,16.20
2018-07-17T22:14:57.437Z,16.30
2018-07-17T22:17:31.552Z,16.30
2018-07-17T22:20:00.025Z,16.30
2018-07-17T22:22:28.165Z,16.30
2018-07-17T22:24:56.370Z,16.30
2018-07-17T22:27:24.444Z,16.30
2018-07-17T22:30:01.943Z,16.40
2018-07-17T22:32:30.102Z,16.30
2018-07-17T22:34:58.151Z,16.40
2018-07-17T22:37:26.365Z,16.40
2018-07-17T22:39:54.498Z,16.40
2018-07-17T22:42:22.607Z,16.40
2018-07-17T22:44:50.656Z,16.40
2018-07-17T22:47:18.981Z,16.40
2018-07-17T22:49:47.108Z,16.40
2018-07-17T22:52:15.182Z,16.40
2018-07-17T22:54:43.457Z,16.40
2018-07-17T22:57:11.572Z,16.40
2018-07-17T22:59:39.606Z,16.40
2018-07-17T23:02:07.836Z,16.40
2018-07-17T23:04:35.853Z,16.30
2018-07-17T23:07:04.127Z,16.20
2018-07-17T23:09:32.352Z,16.20
2018-07-17T23:12:00.560Z,16.10
2018-07-17T23:14:28.844Z,16.10
2018-07-17T23:19:24.905Z,16.10
2018-07-17T23:21:53.092Z,16.00
2018-07-17T23:24:21.206Z,16.10
2018-07-17T23:26:49.278Z,16.00
2018-07-17T23:29:17.423Z,16.00
2018-07-17T23:31:45.677Z,16.00
2018-07-17T23:34:13.766Z,15.90
2018-07-17T23:36:42.058Z,15.90
2018-07-17T23:39:11.271Z,15.80
2018-07-17T23:41:39.522Z,15.80
2018-07-17T23:44:07.559Z,15.70
2018-07-17T23:49:03.772Z,15.70
2018-07-17T23:51:31.899Z,15.70
2018-07-17T23:54:00.106Z,15.60
2018-07-17T23:56:28.144Z,15.60
2018-07-17T23:58:56.468Z,15.60
